Time;durP1;ratioP1;P1;durP2;ratioP2;P2;SDS_P1;SDS_P2;PMS_P1;PMS_P2;Temp;Humidity;BMP_temperature;BMP_pressure;BME280_temperature;BME280_humidity;BME280_pressure;Samples;Min_cycle;Max_cycle;Signal;HPM_P1;HPM_P2
2021/07/02 00:00:09;;;;;;;4.25;3.85;;;15.60;99.90;;;;;;5055131;28;20059;-75
2021/07/02 00:02:35;;;;;;;5.95;3.78;;;15.60;99.90;;;;;;5055275;28;20103;-76
2021/07/02 00:05:01;;;;;;;5.63;3.83;;;15.60;99.90;;;;;;5054947;28;20136;-75
2021/07/02 00:07:27;;;;;;;4.57;3.83;;;15.60;99.90;;;;;;5055122;28;20386;-77
2021/07/02 00:09:52;;;;;;;4.75;3.83;;;15.60;99.90;;;;;;5054735;28;20099;-77
2021/07/02 00:12:18;;;;;;;3.97;3.40;;;15.60;99.90;;;;;;5054810;28;20025;-75
2021/07/02 00:14:44;;;;;;;3.90;3.50;;;15.60;99.90;;;;;;5054397;28;20028;-75
2021/07/02 00:17:09;;;;;;;3.92;3.55;;;15.60;99.90;;;;;;5036715;28;20029;-76
2021/07/02 00:19:35;;;;;;;7.10;3.45;;;15.60;99.90;;;;;;5054657;28;20449;-76
2021/07/02 00:22:00;;;;;;;4.30;3.55;;;15.60;99.90;;;;;;5037167;28;20505;-76
2021/07/02 00:24:26;;;;;;;5.03;3.65;;;15.60;99.90;;;;;;5055339;28;20021;-76
2021/07/02 00:26:52;;;;;;;4.22;3.80;;;15.60;99.90;;;;;;5053996;28;20025;-75
2021/07/02 00:29:17;;;;;;;4.82;4.30;;;15.60;99.90;;;;;;5054502;28;20021;-76
2021/07/02 00:31:43;;;;;;;4.60;3.90;;;15.60;99.90;;;;;;5055011;28;20029;-76
2021/07/02 00:34:08;;;;;;;4.32;3.92;;;15.60;99.90;;;;;;5055185;28;20021;-76
2021/07/02 00:36:34;;;;;;;4.82;3.45;;;15.60;99.90;;;;;;5054921;28;20067;-75
2021/07/02 00:39:00;;;;;;;5.60;4.10;;;15.60;99.90;;;;;;5055000;28;20021;-77
2021/07/02 00:41:25;;;;;;;4.07;3.67;;;15.60;99.90;;;;;;5053637;28;20024;-76
2021/07/02 00:43:53;;;;;;;4.57;4.13;;;15.50;99.90;;;;;;5054923;28;20387;-76
2021/07/02 00:46:19;;;;;;;4.90;4.35;;;15.60;99.90;;;;;;5036822;28;20387;-75
2021/07/02 00:48:46;;;;;;;7.43;4.25;;;15.50;99.90;;;;;;5054540;28;20052;-75
2021/07/02 00:51:12;;;;;;;6.07;4.25;;;15.50;99.90;;;;;;5054654;28;20056;-76
2021/07/02 00:53:41;;;;;;;4.15;3.75;;;15.50;99.90;;;;;;5052917;28;20028;-78
2021/07/02 00:56:06;;;;;;;4.20;3.50;;;15.40;99.90;;;;;;5053997;28;20025;-76
2021/07/02 00:58:33;;;;;;;5.65;3.90;;;15.40;99.90;;;;;;5054420;28;20021;-76
2021/07/02 01:00:59;;;;;;;5.28;3.88;;;15.40;99.90;;;;;;5052886;28;20025;-76
2021/07/02 01:03:24;;;;;;;4.20;3.83;;;15.50;99.90;;;;;;5053814;28;20386;-75
2021/07/02 01:05:50;;;;;;;7.53;4.30;;;15.50;99.90;;;;;;5053553;28;20044;-74
2021/07/02 01:08:16;;;;;;;6.20;4.25;;;15.50;99.90;;;;;;5053375;28;20290;-76
2021/07/02 01:10:45;;;;;;;6.72;4.20;;;15.40;99.90;;;;;;5052243;28;20028;-75
2021/07/02 01:13:11;;;;;;;4.70;4.20;;;15.40;99.90;;;;;;5052084;28;20024;-75
2021/07/02 01:15:37;;;;;;;4.78;3.72;;;15.30;99.90;;;;;;5059703;28;20028;-75
2021/07/02 01:18:06;;;;;;;4.55;4.15;;;15.40;99.90;;;;;;5070326;28;20068;-76
2021/07/02 01:20:32;;;;;;;5.43;3.80;;;15.40;99.90;;;;;;5064272;28;20081;-75
2021/07/02 01:22:58;;;;;;;4.30;3.85;;;15.30;99.90;;;;;;5059540;28;20068;-75
2021/07/02 01:25:28;;;;;;;4.38;3.97;;;15.30;99.90;;;;;;5062497;28;20058;-76
2021/07/02 01:27:53;;;;;;;6.37;3.83;;;15.30;99.90;;;;;;5060248;28;20037;-76
2021/07/02 01:30:19;;;;;;;6.78;4.20;;;15.20;99.90;;;;;;5053851;28;20272;-77
2021/07/02 01:32:45;;;;;;;4.82;3.97;;;15.10;99.90;;;;;;5054346;28;20497;-77
2021/07/02 01:35:11;;;;;;;5.07;4.13;;;15.20;99.90;;;;;;5053415;28;20037;-76
2021/07/02 01:37:36;;;;;;;4.32;3.92;;;15.20;99.90;;;;;;5052249;28;20045;-76
2021/07/02 01:40:03;;;;;;;6.20;4.00;;;15.30;99.90;;;;;;5053056;28;20021;-76
2021/07/02 01:42:29;;;;;;;4.55;4.00;;;15.20;99.90;;;;;;5053042;28;20059;-77
2021/07/02 01:44:54;;;;;;;5.65;3.58;;;15.30;99.90;;;;;;5051662;28;20025;-77
2021/07/02 01:47:20;;;;;;;4.55;4.07;;;15.30;99.90;;;;;;5035467;28;20096;-76
2021/07/02 01:49:45;;;;;;;4.57;4.18;;;15.30;99.90;;;;;;5054627;28;20037;-75
2021/07/02 01:52:11;;;;;;;5.07;4.57;;;15.20;99.90;;;;;;5053304;28;20064;-76
2021/07/02 01:54:37;;;;;;;8.57;4.28;;;15.10;99.90;;;;;;5051988;28;20033;-76
2021/07/02 01:57:09;;;;;;;4.45;4.05;;;15.10;99.90;;;;;;5054950;28;20059;-76
2021/07/02 01:59:35;;;;;;;4.55;4.15;;;15.10;99.90;;;;;;5052878;28;20027;-76
2021/07/02 02:02:00;;;;;;;4.10;3.70;;;15.10;99.90;;;;;;5053394;28;20428;-77
2021/07/02 02:04:26;;;;;;;4.28;3.88;;;15.10;99.90;;;;;;5053763;28;20037;-76
2021/07/02 02:06:51;;;;;;;4.80;4.30;;;15.00;99.90;;;;;;5054979;28;20125;-74
2021/07/02 02:09:17;;;;;;;4.57;4.15;;;15.00;99.90;;;;;;5071517;28;20044;-74
2021/07/02 02:11:42;;;;;;;4.72;4.30;;;15.00;99.90;;;;;;5069582;28;20032;-75
2021/07/02 02:14:10;;;;;;;9.38;4.38;;;15.00;99.90;;;;;;5071241;28;20033;-75
2021/07/02 02:16:37;;;;;;;4.70;4.30;;;14.90;99.90;;;;;;5062420;28;20021;-75
2021/07/02 02:19:04;;;;;;;5.18;4.32;;;14.90;99.90;;;;;;5063489;28;20024;-76
2021/07/02 02:21:30;;;;;;;5.55;4.38;;;14.80;99.90;;;;;;5061432;28;20029;-75
2021/07/02 02:23:55;;;;;;;5.88;4.38;;;14.80;99.90;;;;;;5067002;28;20032;-75
2021/07/02 02:26:21;;;;;;;5.57;4.10;;;14.70;1.00;;;;;;5064866;28;20075;-76
2021/07/02 02:28:46;;;;;;;5.25;4.75;;;14.70;1.00;;;;;;5052826;28;20112;-75
2021/07/02 02:31:12;;;;;;;5.07;4.47;;;14.70;1.00;;;;;;5052294;28;20039;-75
2021/07/02 02:33:38;;;;;;;5.15;4.60;;;14.70;1.00;;;;;;5052541;28;20036;-75
2021/07/02 02:36:04;;;;;;;5.28;4.30;;;14.70;1.00;;;;;;5052827;28;20064;-77
2021/07/02 02:38:30;;;;;;;4.47;4.07;;;14.70;1.00;;;;;;5052802;28;20025;-75
2021/07/02 02:40:56;;;;;;;4.88;4.18;;;14.70;1.00;;;;;;5051095;28;20100;-75
2021/07/02 02:43:21;;;;;;;4.53;4.13;;;14.60;1.00;;;;;;5052984;28;20028;-78
2021/07/02 02:45:47;;;;;;;5.43;4.93;;;14.60;1.00;;;;;;5051199;28;20542;-76
2021/07/02 02:48:12;;;;;;;4.68;4.28;;;14.50;1.00;;;;;;5052266;28;20036;-76
2021/07/02 02:50:38;;;;;;;5.53;4.75;;;14.50;1.00;;;;;;5052856;28;20021;-77
2021/07/02 02:53:04;;;;;;;6.82;4.75;;;14.60;1.00;;;;;;5053366;28;20056;-75
2021/07/02 02:55:29;;;;;;;4.68;4.10;;;14.50;1.00;;;;;;5052280;28;20060;-77
2021/07/02 02:57:55;;;;;;;5.95;4.95;;;14.40;1.00;;;;;;5050854;28;20060;-76
2021/07/02 03:00:20;;;;;;;5.80;4.88;;;14.40;1.00;;;;;;5052160;28;20028;-76
2021/07/02 03:02:46;;;;;;;7.65;4.90;;;14.50;1.00;;;;;;5051733;28;20053;-76
2021/07/02 03:05:12;;;;;;;7.13;5.50;;;14.50;1.00;;;;;;5051464;28;20047;-77
2021/07/02 03:07:38;;;;;;;6.45;5.15;;;14.50;1.00;;;;;;5052373;28;20544;-76
2021/07/02 03:10:05;;;;;;;5.65;4.78;;;14.50;1.00;;;;;;5052053;28;20025;-77
2021/07/02 03:12:31;;;;;;;7.07;4.60;;;14.50;1.00;;;;;;5051741;28;20491;-76
2021/07/02 03:14:56;;;;;;;5.50;4.63;;;14.50;1.00;;;;;;5033565;28;20029;-76
2021/07/02 03:17:22;;;;;;;5.53;4.85;;;14.50;1.00;;;;;;5050352;28;20017;-76
2021/07/02 03:19:48;;;;;;;6.30;5.55;;;14.50;1.00;;;;;;5051432;28;20017;-76
2021/07/02 03:22:13;;;;;;;6.88;4.95;;;14.30;1.00;;;;;;5051347;28;20074;-76
2021/07/02 03:24:39;;;;;;;5.30;4.60;;;14.40;1.00;;;;;;5051254;28;20025;-76
2021/07/02 03:27:04;;;;;;;7.20;4.78;;;14.40;1.00;;;;;;5041946;28;20017;-76
2021/07/02 03:29:30;;;;;;;5.70;5.10;;;14.30;1.00;;;;;;5033816;28;20017;-76
2021/07/02 03:31:56;;;;;;;7.65;5.57;;;14.40;1.00;;;;;;5054554;28;20494;-76
2021/07/02 03:34:21;;;;;;;5.85;5.28;;;14.50;1.00;;;;;;5055416;28;20203;-75
2021/07/02 03:36:47;;;;;;;5.30;4.80;;;14.50;1.00;;;;;;5094434;22;20055;-70
2021/07/02 03:39:12;;;;;;;7.20;5.97;;;14.50;1.00;;;;;;5073847;28;20025;-70
2021/07/02 03:41:38;;;;;;;6.63;5.10;;;14.50;1.00;;;;;;5075168;28;20020;-70
2021/07/02 03:44:04;;;;;;;4.63;4.22;;;14.60;1.00;;;;;;5075021;28;20110;-70
2021/07/02 03:46:30;;;;;;;5.45;4.95;;;14.50;1.00;;;;;;5074857;28;20025;-70
2021/07/02 03:48:55;;;;;;;5.65;4.85;;;14.40;1.00;;;;;;5075078;28;20021;-70
2021/07/02 03:51:21;;;;;;;7.10;5.45;;;14.30;1.00;;;;;;5074860;28;20024;-70
2021/07/02 03:53:47;;;;;;;5.35;4.78;;;14.30;1.00;;;;;;5073623;28;20095;-70
2021/07/02 03:56:12;;;;;;;6.05;4.93;;;14.40;1.00;;;;;;5074628;28;20043;-70
2021/07/02 03:58:38;;;;;;;6.68;5.35;;;14.40;1.00;;;;;;5074649;28;20020;-70
2021/07/02 04:01:04;;;;;;;9.75;5.97;;;14.40;1.00;;;;;;5074605;28;20020;-71
2021/07/02 04:03:32;;;;;;;6.97;5.70;;;14.40;1.00;;;;;;5074730;28;20025;-70
2021/07/02 04:05:57;;;;;;;5.30;4.80;;;14.50;1.00;;;;;;5074752;28;20429;-71
2021/07/02 04:08:23;;;;;;;7.45;5.80;;;14.50;1.00;;;;;;5074696;28;20025;-71
2021/07/02 04:10:48;;;;;;;8.88;5.68;;;14.60;1.00;;;;;;5074478;28;20021;-71
2021/07/02 04:13:15;;;;;;;7.07;5.07;;;14.60;1.00;;;;;;5074489;28;20072;-70
2021/07/02 04:15:41;;;;;;;6.55;4.85;;;14.70;1.00;;;;;;5089807;28;20031;-72
2021/07/02 04:18:07;;;;;;;6.15;5.18;;;14.70;1.00;;;;;;5074298;28;20103;-70
2021/07/02 04:20:33;;;;;;;6.05;4.95;;;14.80;1.00;;;;;;5074329;28;20020;-70
2021/07/02 04:22:59;;;;;;;6.55;4.85;;;14.80;1.00;;;;;;5074458;28;20023;-70
2021/07/02 04:25:25;;;;;;;6.22;5.40;;;14.80;99.90;;;;;;5074160;28;20438;-70
2021/07/02 04:27:50;;;;;;;7.30;4.93;;;14.90;99.90;;;;;;5074554;28;20024;-70
2021/07/02 04:30:17;;;;;;;9.00;5.25;;;14.90;99.90;;;;;;5074190;28;20062;-71
2021/07/02 04:32:42;;;;;;;6.60;5.18;;;15.00;99.90;;;;;;5074476;28;20025;-71
2021/07/02 04:35:09;;;;;;;6.68;5.53;;;15.00;99.90;;;;;;5074561;28;20063;-70
2021/07/02 04:37:36;;;;;;;7.38;5.20;;;15.00;99.90;;;;;;5074129;28;20020;-70
2021/07/02 04:40:03;;;;;;;6.35;4.97;;;15.00;99.90;;;;;;5074420;28;20020;-70
2021/07/02 04:42:29;;;;;;;9.25;5.18;;;15.00;99.90;;;;;;5074054;28;20062;-71
2021/07/02 04:44:54;;;;;;;8.93;5.68;;;15.10;99.90;;;;;;5074074;28;20424;-71
2021/07/02 04:47:20;;;;;;;8.27;5.90;;;15.10;99.90;;;;;;5074652;28;20028;-70
2021/07/02 04:49:45;;;;;;;8.00;5.63;;;15.20;99.90;;;;;;5083232;28;20090;-70
2021/07/02 04:52:11;;;;;;;6.53;4.78;;;15.30;99.90;;;;;;5087194;28;20494;-71
2021/07/02 04:54:37;;;;;;;7.13;5.22;;;15.40;99.90;;;;;;5075628;28;20074;-70
2021/07/02 04:57:02;;;;;;;6.00;4.70;;;15.60;99.90;;;;;;5074547;28;20028;-71
2021/07/02 04:59:31;;;;;;;8.10;5.72;;;15.70;99.90;;;;;;5074665;28;20063;-71
2021/07/02 05:01:57;;;;;;;9.82;4.93;;;15.80;99.90;;;;;;5074375;28;20016;-71
2021/07/02 05:04:23;;;;;;;6.28;4.78;;;15.90;99.90;;;;;;5077987;28;20372;-71
2021/07/02 05:06:48;;;;;;;11.32;4.75;;;16.00;99.90;;;;;;5080833;28;20020;-72
2021/07/02 05:09:14;;;;;;;6.55;4.60;;;16.00;99.90;;;;;;5074891;28;20104;-71
2021/07/02 05:11:39;;;;;;;8.98;5.07;;;16.10;99.90;;;;;;5074512;28;20036;-71
2021/07/02 05:14:07;;;;;;;15.40;6.55;;;16.10;99.90;;;;;;5074447;28;20024;-70
2021/07/02 05:16:32;;;;;;;6.45;5.03;;;16.20;99.90;;;;;;5073828;28;20028;-71
2021/07/02 05:18:58;;;;;;;7.20;5.30;;;16.30;99.90;;;;;;5073512;28;20025;-71
2021/07/02 05:21:24;;;;;;;5.45;4.93;;;16.20;99.90;;;;;;5073435;28;20307;-70
2021/07/02 05:23:49;;;;;;;10.05;4.65;;;16.30;99.90;;;;;;5073505;28;20054;-70
2021/07/02 05:26:15;;;;;;;8.48;5.03;;;16.30;99.90;;;;;;5073027;28;20029;-70
2021/07/02 05:28:40;;;;;;;7.80;4.88;;;16.30;99.90;;;;;;5073673;28;20127;-70
2021/07/02 05:31:06;;;;;;;8.90;5.45;;;16.50;99.90;;;;;;5073118;28;20081;-70
2021/07/02 05:33:33;;;;;;;9.45;5.30;;;16.50;99.90;;;;;;5073454;28;20503;-70
2021/07/02 05:35:58;;;;;;;12.02;5.30;;;16.50;99.90;;;;;;5073171;28;20123;-70
2021/07/02 05:38:24;;;;;;;7.82;4.85;;;16.60;99.90;;;;;;5089024;28;20048;-70
2021/07/02 05:40:54;;;;;;;6.25;4.53;;;16.60;99.90;;;;;;5074244;28;20031;-73
2021/07/02 05:43:24;;;;;;;6.40;4.78;;;16.70;99.90;;;;;;5076680;28;20021;-72
2021/07/02 05:45:49;;;;;;;4.68;4.28;;;16.90;99.90;;;;;;5073416;28;20028;-71
2021/07/02 05:48:19;;;;;;;8.32;4.78;;;17.50;38.60;;;;;;5071795;28;20028;-71
2021/07/02 05:50:46;;;;;;;4.97;4.57;;;17.90;99.90;;;;;;5088185;28;20101;-71
2021/07/02 05:53:12;;;;;;;6.75;4.13;;;18.20;99.90;;;;;;5071974;28;20027;-71
2021/07/02 05:55:38;;;;;;;4.57;4.18;;;18.40;99.90;;;;;;5072112;28;20032;-71
2021/07/02 05:58:04;;;;;;;4.05;3.55;;;18.60;99.90;;;;;;5072605;28;20048;-72
2021/07/02 06:00:29;;;;;;;3.97;3.58;;;18.90;99.90;;;;;;5090125;28;20048;-72
2021/07/02 06:02:55;;;;;;;7.25;3.58;;;19.50;99.90;;;;;;5088958;28;20078;-70
2021/07/02 06:05:21;;;;;;;4.72;3.45;;;20.30;99.90;;;;;;5073491;28;20465;-72
2021/07/02 06:07:49;;;;;;;4.63;3.90;;;20.80;99.90;;;;;;5072828;28;20047;-71
2021/07/02 06:10:17;;;;;;;4.38;3.97;;;21.20;99.90;;;;;;5072440;28;20020;-71
2021/07/02 06:12:43;;;;;;;3.90;3.42;;;21.70;99.90;;;;;;5072872;28;20025;-72
2021/07/02 06:15:11;;;;;;;4.63;2.90;;;22.10;99.90;;;;;;5072760;28;20025;-72
2021/07/02 06:17:36;;;;;;;6.15;4.70;;;22.10;99.90;;;;;;5072517;28;20107;-72
2021/07/02 06:20:02;;;;;;;3.50;3.20;;;22.20;99.90;;;;;;5072247;28;20052;-72
2021/07/02 06:22:28;;;;;;;4.53;3.40;;;21.90;99.90;;;;;;5072767;28;20044;-70
2021/07/02 06:24:53;;;;;;;5.80;3.47;;;21.90;99.90;;;;;;5072387;28;20022;-70
2021/07/02 06:27:19;;;;;;;3.80;3.33;;;21.50;99.90;;;;;;5072302;28;20023;-70
2021/07/02 06:29:45;;;;;;;4.65;3.85;;;21.70;99.90;;;;;;5072449;28;20024;-71
2021/07/02 06:32:10;;;;;;;3.97;3.55;;;21.20;99.90;;;;;;5094124;28;20059;-72
2021/07/02 06:34:36;;;;;;;4.90;3.88;;;20.80;99.90;;;;;;5075587;28;20029;-71
2021/07/02 06:37:02;;;;;;;4.03;3.70;;;20.40;99.90;;;;;;5072886;28;20405;-72
2021/07/02 06:39:30;;;;;;;4.80;4.40;;;20.00;99.90;;;;;;5077738;28;20038;-72
2021/07/02 06:41:56;;;;;;;4.82;4.25;;;19.90;99.90;;;;;;5072277;28;20028;-72
2021/07/02 06:44:21;;;;;;;5.30;3.92;;;19.80;99.90;;;;;;5071894;28;20021;-71
2021/07/02 06:46:47;;;;;;;5.18;3.78;;;19.70;99.90;;;;;;5071929;28;20056;-71
2021/07/02 06:49:13;;;;;;;5.03;4.15;;;19.90;99.90;;;;;;5072152;28;20048;-71
2021/07/02 06:51:38;;;;;;;5.78;3.92;;;20.00;99.90;;;;;;5072134;28;20528;-72
2021/07/02 06:54:04;;;;;;;4.45;4.05;;;20.00;99.90;;;;;;5072040;28;20048;-71
2021/07/02 06:56:31;;;;;;;6.32;4.35;;;20.20;99.90;;;;;;5071982;28;20078;-71
2021/07/02 06:58:57;;;;;;;7.32;4.85;;;20.00;99.90;;;;;;5071816;28;20740;-71
2021/07/02 07:01:23;;;;;;;4.05;3.65;;;19.80;99.90;;;;;;5071798;28;20033;-71
2021/07/02 07:03:50;;;;;;;5.07;4.40;;;19.60;99.90;;;;;;5071661;28;20164;-72
2021/07/02 07:06:16;;;;;;;4.38;3.97;;;19.70;99.90;;;;;;5075597;28;20033;-71
2021/07/02 07:08:42;;;;;;;6.80;4.15;;;19.60;99.90;;;;;;5076161;28;20029;-71
2021/07/02 07:11:07;;;;;;;4.47;3.97;;;19.40;99.90;;;;;;5076027;28;20025;-71
2021/07/02 07:13:33;;;;;;;5.95;4.15;;;19.60;99.90;;;;;;5076054;28;20498;-72
2021/07/02 07:15:59;;;;;;;4.25;3.88;;;19.60;99.90;;;;;;5074346;28;20029;-71
2021/07/02 07:18:24;;;;;;;4.07;3.67;;;19.80;99.90;;;;;;5076096;28;20504;-72
2021/07/02 07:20:50;;;;;;;4.75;4.35;;;19.80;99.90;;;;;;5075880;28;20024;-71
2021/07/02 07:23:15;;;;;;;5.85;4.25;;;20.10;99.90;;;;;;5091476;28;20420;-72
2021/07/02 07:25:41;;;;;;;6.38;4.25;;;19.90;99.90;;;;;;5075872;28;20402;-71
2021/07/02 07:28:07;;;;;;;6.70;3.85;;;19.60;99.90;;;;;;5075900;28;20017;-72
2021/07/02 07:30:33;;;;;;;4.38;3.72;;;19.30;99.90;;;;;;5075796;28;20028;-73
2021/07/02 07:32:58;;;;;;;4.40;4.00;;;19.40;99.90;;;;;;5077073;28;20031;-73
2021/07/02 07:35:31;;;;;;;5.95;3.70;;;19.20;99.90;;;;;;5091694;28;20029;-72
2021/07/02 07:37:57;;;;;;;8.32;4.07;;;19.30;99.90;;;;;;5074811;28;20016;-71
2021/07/02 07:40:24;;;;;;;4.57;3.45;;;19.90;99.90;;;;;;5075893;28;20448;-72
2021/07/02 07:42:50;;;;;;;3.35;3.05;;;20.00;99.90;;;;;;5075450;28;20028;-71
2021/07/02 07:45:16;;;;;;;3.67;3.28;;;19.80;99.90;;;;;;5075758;28;20016;-72
2021/07/02 07:47:41;;;;;;;3.85;3.47;;;19.30;99.90;;;;;;5090830;28;20070;-72
2021/07/02 07:50:14;;;;;;;4.13;3.65;;;19.20;99.90;;;;;;5075155;28;20029;-70
2021/07/02 07:53:13;;;;;;;3.83;3.15;;;19.30;99.90;;;;;;5075468;28;20512;-72
2021/07/02 07:55:32;;;;;;;5.22;3.42;;;19.50;99.90;;;;;;5072703;28;20035;-71
2021/07/02 07:57:58;;;;;;;3.72;3.42;;;19.80;99.90;;;;;;5074932;28;20029;-71
2021/07/02 08:00:24;;;;;;;4.25;3.85;;;20.10;99.90;;;;;;5075882;28;20058;-73
2021/07/02 08:02:50;;;;;;;4.38;3.67;;;20.50;99.90;;;;;;5091128;28;20020;-72
2021/07/02 08:05:17;;;;;;;3.60;3.05;;;20.90;99.90;;;;;;5075201;28;20428;-72
2021/07/02 08:07:44;;;;;;;4.72;3.83;;;21.00;99.90;;;;;;5075389;28;20035;-71
2021/07/02 08:10:18;;;;;;;3.85;3.53;;;20.70;99.90;;;;;;5075238;28;20021;-71
2021/07/02 08:12:43;;;;;;;4.43;3.53;;;20.90;99.90;;;;;;5075405;28;20095;-72
2021/07/02 08:15:11;;;;;;;4.72;3.60;;;20.70;99.90;;;;;;5110097;28;20035;-71
2021/07/02 08:17:37;;;;;;;7.70;4.55;;;20.60;99.90;;;;;;5079653;28;20037;-72
2021/07/02 08:20:05;;;;;;;4.13;3.80;;;20.80;99.90;;;;;;5075563;28;20500;-72
2021/07/02 08:22:31;;;;;;;3.55;3.22;;;20.90;99.90;;;;;;5075550;28;20158;-70
2021/07/02 08:24:56;;;;;;;4.18;3.72;;;20.60;99.90;;;;;;5075162;28;20048;-72
2021/07/02 08:27:24;;;;;;;5.70;4.25;;;20.70;99.90;;;;;;5074899;28;20537;-72
2021/07/02 08:29:50;;;;;;;5.90;4.18;;;20.50;99.90;;;;;;5075285;28;20020;-72
2021/07/02 08:32:16;;;;;;;6.03;4.00;;;20.10;99.90;;;;;;5075095;28;20024;-72
2021/07/02 08:34:42;;;;;;;4.55;3.78;;;20.20;99.90;;;;;;5075484;28;20028;-71
2021/07/02 08:37:07;;;;;;;11.60;4.90;;;20.30;99.90;;;;;;5077173;28;20033;-72
2021/07/02 08:39:33;;;;;;;10.82;4.30;;;20.40;99.90;;;;;;5090272;28;20025;-71
2021/07/02 08:42:00;;;;;;;5.05;3.90;;;20.80;99.90;;;;;;5074830;28;20021;-72
2021/07/02 08:44:25;;;;;;;4.13;3.72;;;20.50;99.90;;;;;;5074748;28;20524;-71
2021/07/02 08:46:52;;;;;;;4.20;3.80;;;20.20;99.90;;;;;;5074826;28;20029;-70
2021/07/02 08:49:19;;;;;;;7.03;3.88;;;20.40;99.90;;;;;;5073470;28;20478;-71
2021/07/02 08:51:45;;;;;;;4.20;3.33;;;20.90;99.90;;;;;;5079676;28;20032;-72
2021/07/02 08:54:15;;;;;;;4.07;3.72;;;21.10;99.90;;;;;;5079920;28;20031;-71
2021/07/02 08:56:42;;;;;;;10.55;4.57;;;20.80;99.90;;;;;;5080672;28;20052;-71
2021/07/02 08:59:08;;;;;;;4.60;3.90;;;20.50;99.90;;;;;;5077174;28;20070;-71
2021/07/02 09:01:38;;;;;;;4.32;3.92;;;20.90;99.90;;;;;;5091874;28;20020;-72
2021/07/02 09:04:22;;;;;;;3.80;3.40;;;21.40;99.70;;;;;;5077713;28;20109;-72
2021/07/02 09:07:08;;;;;;;4.90;4.40;;;22.00;99.30;;;;;;5088846;28;20055;-71
2021/07/02 09:09:49;;;;;;;4.93;4.00;;;21.50;99.40;;;;;;5088294;28;20055;-72
2021/07/02 09:12:16;;;;;;;16.70;4.95;;;21.40;99.90;;;;;;5075559;28;20060;-70
2021/07/02 09:14:59;;;;;;;6.47;4.53;;;21.20;99.20;;;;;;5074614;28;20031;-71
2021/07/02 09:17:25;;;;;;;5.03;3.97;;;20.70;99.90;;;;;;5074051;28;20020;-72
2021/07/02 09:20:03;;;;;;;5.85;4.63;;;20.70;99.90;;;;;;5073913;28;20099;-71
2021/07/02 09:22:49;;;;;;;3.85;3.55;;;20.80;99.90;;;;;;5074017;28;20029;-71
2021/07/02 09:25:25;;;;;;;3.65;3.20;;;21.00;99.90;;;;;;5073314;28;20027;-71
2021/07/02 09:27:52;;;;;;;4.65;3.65;;;21.50;99.60;;;;;;5072272;28;20100;-70
2021/07/02 09:30:21;;;;;;;4.05;3.70;;;22.20;98.10;;;;;;5073483;28;20047;-71
2021/07/02 09:32:49;;;;;;;3.85;3.13;;;22.10;98.30;;;;;;5073383;28;20024;-71
2021/07/02 09:37:42;;;;;;;5.65;3.20;;;21.00;95.80;;;;;;5093944;22;20158;-78
2021/07/02 09:40:21;;;;;;;3.83;3.45;;;21.10;97.60;;;;;;5059361;28;20340;-77
2021/07/02 09:42:58;;;;;;;4.07;3.70;;;21.40;97.10;;;;;;5075674;28;20035;-77
2021/07/02 09:45:24;;;;;;;4.55;3.83;;;21.40;97.30;;;;;;5075772;28;20051;-77
2021/07/02 09:47:50;;;;;;;4.22;3.67;;;21.60;97.60;;;;;;5073709;28;20058;-75
2021/07/02 09:50:27;;;;;;;4.78;3.85;;;21.90;97.80;;;;;;5074232;28;20055;-77
2021/07/02 09:53:06;;;;;;;4.05;3.65;;;22.20;96.80;;;;;;5074044;28;20025;-77
2021/07/02 09:55:34;;;;;;;4.07;3.67;;;21.70;97.30;;;;;;5075254;28;20032;-78
2021/07/02 09:58:10;;;;;;;4.68;3.97;;;22.10;96.30;;;;;;5074217;28;20066;-76
2021/07/02 10:00:42;;;;;;;4.15;3.75;;;21.90;96.70;;;;;;5075199;28;20477;-75
2021/07/02 10:03:09;;;;;;;4.00;3.70;;;21.80;96.80;;;;;;5076525;28;20028;-77
2021/07/02 10:05:46;;;;;;;7.03;4.30;;;21.10;97.40;;;;;;5077280;28;20415;-75
2021/07/02 10:08:12;;;;;;;5.72;4.10;;;20.80;97.80;;;;;;5076044;28;20066;-77
2021/07/02 10:10:39;;;;;;;5.07;4.05;;;21.10;98.40;;;;;;5073770;28;20044;-77
2021/07/02 10:13:05;;;;;;;4.88;4.45;;;21.20;97.90;;;;;;5074309;28;20032;-76
2021/07/02 10:15:31;;;;;;;8.45;3.90;;;21.10;97.20;;;;;;5073393;28;20025;-77
2021/07/02 10:17:58;;;;;;;5.20;4.70;;;21.20;97.10;;;;;;5073402;28;20042;-76
2021/07/02 10:20:30;;;;;;;4.57;4.03;;;21.40;97.00;;;;;;5055550;28;20434;-78
2021/07/02 10:22:58;;;;;;;5.30;4.05;;;21.30;97.00;;;;;;5073306;28;20025;-75
2021/07/02 10:25:26;;;;;;;4.65;4.22;;;21.40;96.80;;;;;;5055653;28;20470;-77
2021/07/02 10:27:52;;;;;;;4.60;4.18;;;21.30;97.50;;;;;;5074288;28;20032;-75
2021/07/02 10:30:19;;;;;;;4.00;3.70;;;21.40;96.60;;;;;;5077063;28;20024;-77
2021/07/02 10:32:47;;;;;;;5.72;3.65;;;21.70;95.60;;;;;;5073924;28;20028;-76
2021/07/02 10:35:15;;;;;;;3.67;3.38;;;22.00;95.80;;;;;;5076294;28;20039;-76
2021/07/02 10:37:48;;;;;;;6.38;4.07;;;22.20;95.00;;;;;;5077981;28;20039;-76
2021/07/02 10:40:43;;;;;;;3.92;3.55;;;22.00;95.10;;;;;;5056153;28;20031;-76
2021/07/02 10:43:22;;;;;;;4.95;4.45;;;22.20;95.40;;;;;;5065168;28;20052;-76
2021/07/02 10:46:11;;;;;;;3.80;3.47;;;21.90;94.70;;;;;;5075794;28;20039;-76
2021/07/02 10:48:57;;;;;;;7.20;3.58;;;21.80;94.80;;;;;;5072837;28;20075;-78
2021/07/02 10:54:16;;;;;;;5.43;3.80;;;22.10;93.70;;;;;;5071800;28;20033;-76
2021/07/02 10:57:06;;;;;;;3.50;3.20;;;21.90;93.70;;;;;;5072193;28;20462;-77
2021/07/02 10:59:38;;;;;;;4.95;3.42;;;21.90;93.40;;;;;;5060802;28;20523;-78
2021/07/02 11:02:09;;;;;;;4.28;3.88;;;22.10;92.60;;;;;;5074966;28;20016;-78
2021/07/02 11:04:35;;;;;;;;;;;22.10;92.80;;;;;;5073003;28;20043;-77
2021/07/02 11:07:08;;;;;;;5.07;4.07;;;22.20;93.10;;;;;;5073958;28;19957;-77
2021/07/02 11:09:49;;;;;;;5.95;3.63;;;21.80;92.10;;;;;;5075628;28;20021;-77
2021/07/02 11:12:18;;;;;;;;;;;22.10;92.70;;;;;;5055444;28;20363;-77
2021/07/02 11:14:52;;;;;;;4.60;3.45;;;22.30;92.30;;;;;;5078738;28;19892;-76
2021/07/02 11:17:27;;;;;;;4.57;4.18;;;22.30;91.80;;;;;;5078922;28;20025;-77
2021/07/02 11:20:11;;;;;;;3.88;3.47;;;22.40;92.00;;;;;;5077481;28;20342;-77
2021/07/02 11:23:12;;;;;;;3.42;3.10;;;22.60;91.80;;;;;;5055817;28;20103;-77
2021/07/02 11:25:50;;;;;;;4.05;3.47;;;22.70;91.10;;;;;;5076195;28;20025;-76
2021/07/02 11:28:28;;;;;;;3.97;3.58;;;22.30;91.40;;;;;;5075140;28;20103;-76
2021/07/02 11:31:02;;;;;;;3.90;3.60;;;22.40;91.00;;;;;;5077992;28;20442;-77
2021/07/02 11:33:29;;;;;;;8.10;3.65;;;22.80;91.80;;;;;;5073906;28;20024;-76
2021/07/02 11:35:54;;;;;;;4.75;3.88;;;23.00;90.80;;;;;;5072985;28;20112;-76
2021/07/02 11:38:22;;;;;;;5.28;3.25;;;23.10;90.30;;;;;;5055759;28;20523;-76
2021/07/02 11:40:53;;;;;;;3.85;3.55;;;22.10;89.80;;;;;;5073631;28;20033;-77
2021/07/02 11:43:41;;;;;;;4.10;3.70;;;22.30;90.90;;;;;;5075229;28;20029;-77
2021/07/02 11:46:15;;;;;;;4.35;3.90;;;22.70;91.70;;;;;;5059160;28;20037;-76
2021/07/02 11:48:42;;;;;;;4.65;3.45;;;23.10;90.80;;;;;;5071874;28;20501;-77
2021/07/02 11:51:09;;;;;;;3.55;3.25;;;23.00;90.70;;;;;;5054360;28;20028;-76
2021/07/02 11:53:36;;;;;;;4.88;4.45;;;22.30;91.00;;;;;;5077505;28;20051;-77
2021/07/02 11:56:19;;;;;;;4.57;4.18;;;22.30;91.00;;;;;;5076404;28;20036;-76
2021/07/02 11:58:54;;;;;;;4.35;4.00;;;22.50;91.60;;;;;;5078090;28;20024;-77
2021/07/02 12:01:22;;;;;;;5.95;3.88;;;22.40;91.60;;;;;;5076699;28;20470;-76
2021/07/02 12:03:58;;;;;;;4.43;3.95;;;22.30;92.00;;;;;;5075544;28;20381;-76
2021/07/02 12:06:29;;;;;;;4.90;4.40;;;22.30;92.20;;;;;;5057041;28;20040;-75
2021/07/02 12:09:19;;;;;;;4.25;3.75;;;22.10;91.90;;;;;;5076034;28;20099;-76
2021/07/02 12:11:51;;;;;;;4.22;3.83;;;22.30;92.10;;;;;;5049417;28;20501;-77
2021/07/02 12:14:24;;;;;;;4.65;3.38;;;22.70;91.70;;;;;;5076689;28;20032;-77
2021/07/02 12:16:51;;;;;;;3.83;3.50;;;23.20;90.00;;;;;;5075474;28;20478;-76
2021/07/02 12:19:22;;;;;;;3.67;3.38;;;22.90;90.40;;;;;;5065871;28;20104;-76
2021/07/02 12:21:57;;;;;;;5.93;4.18;;;22.90;89.80;;;;;;5082705;28;20050;-78
2021/07/02 12:24:25;;;;;;;4.57;3.60;;;22.90;90.40;;;;;;5075784;28;20028;-77
2021/07/02 12:26:54;;;;;;;3.85;3.40;;;22.60;90.00;;;;;;5077392;28;20029;-77
2021/07/02 12:29:20;;;;;;;4.30;3.53;;;22.20;90.30;;;;;;5078362;28;20082;-77
2021/07/02 12:31:53;;;;;;;4.43;4.03;;;22.10;91.10;;;;;;5062967;28;20025;-76
2021/07/02 12:34:32;;;;;;;4.88;3.33;;;22.10;91.10;;;;;;5077011;28;20031;-77
2021/07/02 12:37:01;;;;;;;4.88;3.58;;;22.60;90.70;;;;;;5065844;28;20029;-78
2021/07/02 12:39:30;;;;;;;4.13;3.63;;;22.50;90.60;;;;;;5082205;28;20386;-77
2021/07/02 12:42:03;;;;;;;4.10;3.70;;;22.50;90.70;;;;;;5058343;28;20024;-75
2021/07/02 12:44:31;;;;;;;4.60;3.67;;;22.90;90.30;;;;;;5059027;28;20020;-77
2021/07/02 12:46:57;;;;;;;5.88;3.42;;;23.00;90.60;;;;;;5074719;28;20021;-76
2021/07/02 12:49:29;;;;;;;4.13;3.70;;;22.80;90.10;;;;;;5075162;28;20219;-77
2021/07/02 12:55:00;;;;;;;4.30;3.90;;;23.40;90.60;;;;;;5037110;28;20033;-76
2021/07/02 12:57:38;;;;;;;3.95;3.50;;;23.20;89.50;;;;;;5077405;28;20028;-75
2021/07/02 13:00:24;;;;;;;3.88;3.45;;;23.20;90.00;;;;;;5095163;28;20017;-76